Decoded Metar for KSDC ( in ) (IATA:) | Meteo·Mobile Aviation Weather
aviador You're here:

KSDC Decoded Metar

in
Report Time2019-02-16 07:15:00
UTC Time2019-02-16 07:30:16
Flight Rules vfr VFR
Wind240° at 11 Gusting to 17 kt
W.Decomp.*RWY 28: 8.4 kt HW 7.1 kt LCW
W.Rank240° ranks 3
Current wind is above 240° avg. (7.2)
Visibility9999 m
Phenomena:N/A
Clouds:Overcast 035 Hf
Expected CloudBase > 3,200 ft AGL from Temp-Dew spread
Ceiling3,500 ft
Temp-2°C
Dew Point-10°C (55% RH)
AAT-9.0°C
QNH1011 hPa
Raw Report
KSDC 160715Z AUTO 24011G17KT 10SM OVC035 M02/M10 A2985 RMK AO2=

Extra information for KSDC:More info

Social comments